Time;durP1;ratioP1;P1;durP2;ratioP2;P2;SDS_P1;SDS_P2;PMS_P1;PMS_P2;Temp;Humidity;BMP_temperature;BMP_pressure;BME280_temperature;BME280_humidity;BME280_pressure;Samples;Min_cycle;Max_cycle;Signal;HPM_P1;HPM_P2
2022/05/18 00:00:37;;;;;;;2.97;2.40;;;;;;;;;;5056266;28;20208;-69
2022/05/18 00:03:08;;;;;;;4.60;2.47;;;;;;;;;;5056106;28;20185;-66
2022/05/18 00:05:39;;;;;;;3.20;2.57;;;;;;;;;;5056431;28;20656;-66
2022/05/18 00:08:05;;;;;;;3.00;2.70;;;;;;;;;;5056012;28;20205;-67
2022/05/18 00:10:31;;;;;;;3.63;2.50;;;;;;;;;;5074180;28;20178;-66
2022/05/18 00:12:57;;;;;;;2.63;2.40;;;;;;;;;;5073982;28;20178;-66
2022/05/18 00:15:25;;;;;;;4.13;2.80;;;;;;;;;;5073853;28;20545;-67
2022/05/18 00:17:51;;;;;;;2.20;2.03;;;;;;;;;;5073746;28;20707;-65
2022/05/18 00:20:18;;;;;;;2.97;2.37;;;;;;;;;;5074684;28;20203;-65
2022/05/18 00:22:49;;;;;;;2.90;2.23;;;;;;;;;;5074035;28;20248;-66
2022/05/18 00:25:15;;;;;;;2.27;2.07;;;;;;;;;;5056260;28;20615;-65
2022/05/18 00:27:41;;;;;;;4.83;2.03;;;;;;;;;;5057180;28;20198;-65
2022/05/18 00:30:07;;;;;;;2.57;2.37;;;;;;;;;;5073964;28;20185;-66
2022/05/18 00:32:33;;;;;;;3.60;2.27;;;;;;;;;;5055737;28;20178;-65
2022/05/18 00:34:59;;;;;;;2.90;2.17;;;;;;;;;;5073977;28;20185;-65
2022/05/18 00:37:25;;;;;;;4.20;2.23;;;;;;;;;;5073177;28;20201;-65
2022/05/18 00:39:51;;;;;;;3.00;2.37;;;;;;;;;;5055299;28;20209;-65
2022/05/18 00:42:19;;;;;;;4.23;2.43;;;;;;;;;;5055300;28;20217;-67
2022/05/18 00:44:44;;;;;;;5.50;2.47;;;;;;;;;;5055214;28;20178;-66
2022/05/18 00:47:10;;;;;;;3.23;2.40;;;;;;;;;;5073271;28;20319;-66
2022/05/18 00:49:37;;;;;;;2.50;2.30;;;;;;;;;;5073228;28;20555;-66
2022/05/18 00:52:03;;;;;;;3.20;2.50;;;;;;;;;;5073478;28;20587;-66
2022/05/18 00:54:31;;;;;;;3.80;2.30;;;;;;;;;;5073107;28;20216;-66
2022/05/18 00:57:17;;;;;;;2.53;2.13;;;;;;;;;;5073692;28;20224;-66
2022/05/18 00:59:53;;;;;;;2.07;1.87;;;;;;;;;;5073255;28;20198;-66
2022/05/18 01:02:19;;;;;;;3.23;2.17;;;;;;;;;;5055215;28;20208;-66
2022/05/18 01:04:47;;;;;;;2.63;2.43;;;;;;;;;;5055009;28;20668;-66
2022/05/18 01:07:15;;;;;;;5.13;2.53;;;;;;;;;;5073277;28;20224;-66
2022/05/18 01:09:42;;;;;;;3.17;2.07;;;;;;;;;;5073250;28;20596;-66
2022/05/18 01:12:09;;;;;;;2.30;2.10;;;;;;;;;;5073346;28;20215;-66
2022/05/18 01:14:39;;;;;;;3.93;2.10;;;;;;;;;;5072977;28;20274;-66
2022/05/18 01:17:05;;;;;;;2.40;2.20;;;;;;;;;;5055323;28;20243;-66
2022/05/18 01:19:39;;;;;;;3.00;2.10;;;;;;;;;;5072910;28;20251;-66
2022/05/18 01:22:05;;;;;;;3.97;2.40;;;;;;;;;;5072861;28;20223;-66
2022/05/18 01:24:49;;;;;;;3.17;2.20;;;;;;;;;;5072953;28;20177;-66
2022/05/18 01:27:15;;;;;;;2.50;2.30;;;;;;;;;;5054898;28;20197;-66
2022/05/18 01:29:41;;;;;;;2.70;2.40;;;;;;;;;;5073046;28;20193;-66
2022/05/18 01:32:12;;;;;;;5.93;2.47;;;;;;;;;;5054940;28;20224;-66
2022/05/18 01:34:41;;;;;;;3.03;2.20;;;;;;;;;;5072896;28;20165;-66
2022/05/18 01:37:08;;;;;;;2.53;2.20;;;;;;;;;;5072686;28;20193;-66
2022/05/18 01:39:44;;;;;;;2.43;2.10;;;;;;;;;;5072753;28;20198;-66
2022/05/18 01:42:14;;;;;;;3.63;2.17;;;;;;;;;;5054792;28;20173;-66
2022/05/18 01:44:40;;;;;;;2.67;2.47;;;;;;;;;;5054808;28;20170;-66
2022/05/18 01:47:07;;;;;;;2.43;2.23;;;;;;;;;;5072887;28;20228;-66
2022/05/18 01:49:35;;;;;;;2.30;2.10;;;;;;;;;;5076975;28;20188;-66
2022/05/18 01:52:01;;;;;;;2.50;2.30;;;;;;;;;;5058526;28;20549;-67
2022/05/18 01:54:27;;;;;;;2.33;2.13;;;;;;;;;;5058440;28;20186;-67
2022/05/18 01:56:53;;;;;;;2.50;2.30;;;;;;;;;;5076203;28;20208;-66
2022/05/18 01:59:19;;;;;;;2.47;2.10;;;;;;;;;;5058247;28;20209;-66
2022/05/18 02:01:45;;;;;;;4.00;2.67;;;;;;;;;;5076443;28;20182;-64
2022/05/18 02:04:13;;;;;;;2.37;2.17;;;;;;;;;;5076412;28;20649;-64
2022/05/18 02:06:39;;;;;;;2.73;2.37;;;;;;;;;;5076175;28;20189;-66
2022/05/18 02:09:05;;;;;;;3.10;2.40;;;;;;;;;;5076077;28;20184;-66
2022/05/18 02:11:33;;;;;;;3.23;2.43;;;;;;;;;;5076009;28;20624;-67
2022/05/18 02:13:59;;;;;;;4.30;2.40;;;;;;;;;;5076185;28;20213;-67
2022/05/18 02:16:25;;;;;;;2.73;2.30;;;;;;;;;;5057906;28;20186;-64
2022/05/18 02:18:51;;;;;;;3.10;2.47;;;;;;;;;;5058011;28;20543;-66
2022/05/18 02:21:17;;;;;;;3.67;2.30;;;;;;;;;;5076085;28;20269;-66
2022/05/18 02:23:43;;;;;;;4.10;2.50;;;;;;;;;;5075933;28;20174;-66
2022/05/18 02:26:11;;;;;;;2.77;2.30;;;;;;;;;;5075759;28;20177;-65
2022/05/18 02:28:37;;;;;;;3.53;2.27;;;;;;;;;;5075740;28;20210;-66
2022/05/18 02:31:04;;;;;;;2.50;2.10;;;;;;;;;;5076111;28;20646;-67
2022/05/18 02:33:30;;;;;;;4.27;2.47;;;;;;;;;;5076014;28;20664;-66
2022/05/18 02:35:56;;;;;;;3.90;2.47;;;;;;;;;;5076269;28;20177;-67
2022/05/18 02:38:22;;;;;;;4.33;2.43;;;;;;;;;;5075940;28;20698;-67
2022/05/18 02:40:48;;;;;;;3.37;2.90;;;;;;;;;;5075728;28;20635;-66
2022/05/18 02:43:14;;;;;;;3.10;2.57;;;;;;;;;;5075839;28;20178;-66
2022/05/18 02:45:40;;;;;;;3.67;2.57;;;;;;;;;;5075930;28;20231;-66
2022/05/18 02:48:06;;;;;;;3.33;2.90;;;;;;;;;;5057820;28;20198;-66
2022/05/18 02:50:33;;;;;;;4.30;2.57;;;;;;;;;;5075937;28;20178;-66
2022/05/18 02:52:59;;;;;;;4.00;2.87;;;;;;;;;;5075769;28;20201;-66
2022/05/18 02:58:10;;;;;;;3.67;2.73;;;;;;;;;;5079911;28;20259;-66
2022/05/18 03:00:36;;;;;;;6.60;2.83;;;;;;;;;;5075292;28;20174;-66
2022/05/18 03:03:02;;;;;;;4.13;2.57;;;;;;;;;;5057245;28;20630;-66
2022/05/18 03:05:29;;;;;;;3.60;2.50;;;;;;;;;;5075373;28;20181;-66
2022/05/18 03:07:55;;;;;;;2.90;2.60;;;;;;;;;;5056927;28;20322;-66
2022/05/18 03:10:21;;;;;;;4.23;2.90;;;;;;;;;;5075227;28;20215;-66
2022/05/18 03:12:47;;;;;;;3.03;2.73;;;;;;;;;;5074917;28;20322;-66
2022/05/18 03:15:13;;;;;;;3.10;2.57;;;;;;;;;;5074884;28;20185;-66
2022/05/18 03:17:39;;;;;;;4.63;3.07;;;;;;;;;;5056623;28;20221;-66
2022/05/18 03:20:06;;;;;;;3.37;2.90;;;;;;;;;;5074663;28;20197;-66
2022/05/18 03:25:18;;;;;;;4.23;2.80;;;;;;;;;;5075050;28;20319;-65
2022/05/18 03:27:44;;;;;;;2.57;2.30;;;;;;;;;;5074466;28;20189;-66
2022/05/18 03:30:12;;;;;;;2.80;2.60;;;;;;;;;;5074547;28;20178;-66
2022/05/18 03:32:39;;;;;;;2.93;2.73;;;;;;;;;;5074515;28;20662;-66
2022/05/18 03:35:06;;;;;;;3.37;2.80;;;;;;;;;;5056600;28;20185;-66
2022/05/18 03:37:32;;;;;;;4.60;2.70;;;;;;;;;;5074349;28;20784;-66
2022/05/18 03:39:58;;;;;;;3.70;3.10;;;;;;;;;;5074285;28;20284;-67
2022/05/18 03:42:24;;;;;;;3.47;2.60;;;;;;;;;;5074315;28;20174;-66
2022/05/18 03:44:50;;;;;;;2.90;2.60;;;;;;;;;;5074934;28;20174;-66
2022/05/18 03:47:15;;;;;;;3.50;2.80;;;;;;;;;;5074261;28;20629;-66
2022/05/18 03:49:41;;;;;;;4.17;2.60;;;;;;;;;;5074196;28;20231;-67
2022/05/18 03:52:07;;;;;;;3.70;2.57;;;;;;;;;;5074728;28;20231;-67
2022/05/18 03:54:34;;;;;;;2.80;2.40;;;;;;;;;;5056161;28;20227;-66
2022/05/18 03:57:00;;;;;;;4.00;2.90;;;;;;;;;;5074150;28;20251;-66
2022/05/18 03:59:26;;;;;;;2.90;2.70;;;;;;;;;;5055892;28;20239;-66
2022/05/18 04:01:52;;;;;;;4.23;2.70;;;;;;;;;;5073976;28;20174;-66
2022/05/18 04:04:18;;;;;;;4.63;2.80;;;;;;;;;;5074050;28;20181;-66
2022/05/18 04:06:44;;;;;;;3.53;2.73;;;;;;;;;;5057356;28;20579;-67
2022/05/18 04:09:11;;;;;;;3.77;2.50;;;;;;;;;;5056232;28;20181;-66
2022/05/18 04:11:37;;;;;;;3.27;2.83;;;;;;;;;;5055572;28;20678;-66
2022/05/18 04:14:03;;;;;;;3.47;2.33;;;;;;;;;;5056102;28;20212;-67
2022/05/18 04:16:29;;;;;;;2.70;2.47;;;;;;;;;;5074253;28;20622;-67
2022/05/18 04:18:55;;;;;;;2.70;2.50;;;;;;;;;;5056870;28;20198;-67
2022/05/18 04:21:21;;;;;;;3.23;2.93;;;;;;;;;;5075206;28;20546;-66
2022/05/18 04:23:49;;;;;;;4.73;2.70;;;;;;;;;;5075035;28;20178;-67
2022/05/18 04:26:15;;;;;;;5.77;2.60;;;;;;;;;;5074526;28;20565;-67
2022/05/18 04:28:41;;;;;;;4.10;2.80;;;;;;;;;;5056474;28;20181;-67
2022/05/18 04:31:07;;;;;;;2.90;2.57;;;;;;;;;;5074839;28;20182;-67
2022/05/18 04:33:33;;;;;;;3.87;2.73;;;;;;;;;;5074594;28;20260;-67
2022/05/18 04:36:02;;;;;;;2.57;2.37;;;;;;;;;;5056845;28;20213;-67
2022/05/18 04:38:29;;;;;;;3.30;2.50;;;;;;;;;;5056009;28;20206;-67
2022/05/18 04:40:55;;;;;;;3.10;2.30;;;;;;;;;;5074745;28;20170;-67
2022/05/18 04:43:21;;;;;;;2.47;2.27;;;;;;;;;;5074077;28;20170;-68
2022/05/18 04:45:50;;;;;;;2.40;2.20;;;;;;;;;;5057894;28;20178;-67
2022/05/18 04:48:17;;;;;;;3.17;2.70;;;;;;;;;;5057077;28;20223;-67
2022/05/18 04:50:44;;;;;;;3.17;2.40;;;;;;;;;;5075534;28;20173;-67
2022/05/18 04:53:11;;;;;;;2.27;2.07;;;;;;;;;;5075291;28;20216;-66
2022/05/18 04:55:37;;;;;;;2.80;2.60;;;;;;;;;;5057181;28;20178;-67
2022/05/18 04:58:04;;;;;;;3.63;2.50;;;;;;;;;;5074600;28;20189;-66
2022/05/18 05:00:30;;;;;;;3.27;2.80;;;;;;;;;;5056068;28;20210;-66
2022/05/18 05:02:57;;;;;;;3.90;2.90;;;;;;;;;;5055946;28;20185;-66
2022/05/18 05:05:25;;;;;;;4.83;2.70;;;;;;;;;;5056647;28;20609;-66
2022/05/18 05:07:51;;;;;;;3.73;2.80;;;;;;;;;;5055803;28;20193;-66
2022/05/18 05:10:18;;;;;;;3.20;2.60;;;;;;;;;;5074028;28;20208;-66
2022/05/18 05:12:45;;;;;;;3.77;2.70;;;;;;;;;;5055436;28;20213;-65
2022/05/18 05:15:11;;;;;;;2.90;2.63;;;;;;;;;;5073090;28;20181;-66
2022/05/18 05:17:37;;;;;;;3.17;2.33;;;;;;;;;;5088744;22;20221;-64
2022/05/18 05:20:04;;;;;;;4.87;2.43;;;;;;;;;;5072934;28;20280;-64
2022/05/18 05:22:29;;;;;;;2.90;2.43;;;;;;;;;;5075413;28;20548;-65
2022/05/18 05:24:55;;;;;;;3.00;2.70;;;;;;;;;;5076865;28;20290;-64
2022/05/18 05:27:21;;;;;;;2.73;2.27;;;;;;;;;;5077158;28;20189;-64
2022/05/18 05:29:47;;;;;;;2.93;2.30;;;;;;;;;;5058963;28;20182;-64
2022/05/18 05:32:13;;;;;;;2.87;2.40;;;;;;;;;;5077004;28;20177;-64
2022/05/18 05:34:40;;;;;;;4.77;3.20;;;;;;;;;;5077378;28;20181;-66
2022/05/18 05:37:06;;;;;;;2.73;2.50;;;;;;;;;;5058895;28;20185;-65
2022/05/18 05:39:32;;;;;;;3.33;2.67;;;;;;;;;;5076546;28;20786;-64
2022/05/18 05:41:58;;;;;;;3.73;2.60;;;;;;;;;;5077415;28;20637;-65
2022/05/18 05:44:24;;;;;;;2.93;2.40;;;;;;;;;;5076911;28;20666;-65
2022/05/18 05:46:50;;;;;;;3.10;2.27;;;;;;;;;;5076700;28;20181;-65
2022/05/18 05:49:16;;;;;;;2.97;2.53;;;;;;;;;;5058829;28;20204;-65
2022/05/18 05:51:42;;;;;;;4.97;2.57;;;;;;;;;;5077058;28;20195;-64
2022/05/18 05:54:08;;;;;;;2.67;2.40;;;;;;;;;;5059195;28;20178;-65
2022/05/18 05:56:34;;;;;;;3.70;2.70;;;;;;;;;;5077320;28;20178;-64
2022/05/18 05:59:00;;;;;;;3.57;2.47;;;;;;;;;;5058967;28;20198;-64
2022/05/18 06:01:26;;;;;;;2.50;2.30;;;;;;;;;;5058823;28;20259;-65
2022/05/18 06:03:52;;;;;;;2.93;2.20;;;;;;;;;;5076707;28;20177;-65
2022/05/18 06:06:19;;;;;;;3.57;2.90;;;;;;;;;;5076320;28;20217;-65
2022/05/18 06:08:45;;;;;;;2.63;2.40;;;;;;;;;;5076214;28;20194;-66
2022/05/18 06:11:12;;;;;;;3.00;2.70;;;;;;;;;;5076258;28;20181;-66
2022/05/18 06:13:38;;;;;;;2.90;2.70;;;;;;;;;;5076450;28;20184;-65
2022/05/18 06:16:06;;;;;;;3.63;2.67;;;;;;;;;;5058147;28;20185;-64
2022/05/18 06:18:32;;;;;;;3.47;2.57;;;;;;;;;;5075690;28;20216;-64
2022/05/18 06:20:58;;;;;;;2.57;2.30;;;;;;;;;;5058157;28;20185;-64
2022/05/18 06:23:24;;;;;;;4.13;2.33;;;;;;;;;;5076048;28;20173;-64
2022/05/18 06:25:51;;;;;;;3.30;2.53;;;;;;;;;;5075862;28;20174;-64
2022/05/18 06:28:17;;;;;;;3.87;2.67;;;;;;;;;;5075981;28;20198;-64
2022/05/18 06:30:43;;;;;;;3.80;2.77;;;;;;;;;;5075784;28;20178;-65
2022/05/18 06:33:10;;;;;;;3.40;2.27;;;;;;;;;;5075484;28;20369;-64
2022/05/18 06:35:36;;;;;;;2.90;2.37;;;;;;;;;;5075857;28;20232;-64
2022/05/18 06:38:08;;;;;;;3.33;2.67;;;;;;;;;;5057794;28;20202;-65
2022/05/18 06:43:22;;;;;;;3.53;2.83;;;;;;;;;;5075877;28;20174;-64
2022/05/18 06:45:48;;;;;;;3.43;2.57;;;;;;;;;;5057999;28;20178;-64
2022/05/18 06:48:14;;;;;;;3.60;2.87;;;;;;;;;;5075688;28;20205;-65
2022/05/18 06:50:39;;;;;;;7.30;3.87;;;;;;;;;;5057713;28;20182;-64
2022/05/18 06:53:05;;;;;;;5.53;3.17;;;;;;;;;;5075394;28;20182;-64
2022/05/18 06:55:31;;;;;;;6.47;3.60;;;;;;;;;;5057346;28;20182;-64
2022/05/18 06:57:58;;;;;;;4.50;3.60;;;;;;;;;;5075130;28;20197;-64
2022/05/18 07:00:24;;;;;;;6.03;3.50;;;;;;;;;;5057260;28;20201;-65
2022/05/18 07:02:50;;;;;;;4.80;3.10;;;;;;;;;;5057259;28;20178;-64
2022/05/18 07:05:16;;;;;;;5.60;3.20;;;;;;;;;;5075203;28;20533;-64
2022/05/18 07:07:42;;;;;;;5.83;3.60;;;;;;;;;;5075382;28;20760;-64
2022/05/18 07:10:08;;;;;;;4.77;3.10;;;;;;;;;;5075189;28;20213;-64
2022/05/18 07:12:37;;;;;;;3.40;2.90;;;;;;;;;;5076123;28;20280;-65
2022/05/18 07:15:03;;;;;;;5.07;3.30;;;;;;;;;;5058100;28;20192;-65
2022/05/18 07:17:29;;;;;;;4.37;2.93;;;;;;;;;;5076357;28;20236;-64
2022/05/18 07:19:55;;;;;;;5.37;3.20;;;;;;;;;;5082031;28;20189;-66
2022/05/18 07:22:21;;;;;;;5.83;2.50;;;;;;;;;;5056905;28;20200;-64
2022/05/18 07:24:47;;;;;;;3.80;3.30;;;;;;;;;;5074907;28;20235;-64
2022/05/18 07:27:13;;;;;;;4.13;2.97;;;;;;;;;;5074994;28;20173;-64
2022/05/18 07:29:39;;;;;;;5.97;3.00;;;;;;;;;;5074966;28;20650;-63
2022/05/18 07:32:08;;;;;;;4.43;2.90;;;;;;;;;;5075019;28;20178;-64
2022/05/18 07:34:34;;;;;;;3.70;3.07;;;;;;;;;;5056562;28;20557;-64
2022/05/18 07:37:00;;;;;;;4.53;3.00;;;;;;;;;;5056976;28;20189;-64
2022/05/18 07:39:30;;;;;;;3.57;3.00;;;;;;;;;;5074798;28;20198;-64
2022/05/18 07:41:56;;;;;;;3.90;2.80;;;;;;;;;;5074669;28;20258;-64
2022/05/18 07:44:24;;;;;;;4.50;3.53;;;;;;;;;;5074366;28;20205;-64
2022/05/18 07:46:50;;;;;;;3.13;2.87;;;;;;;;;;5055802;28;20188;-64
2022/05/18 07:49:16;;;;;;;6.90;3.10;;;;;;;;;;5074163;28;20665;-65
2022/05/18 07:51:43;;;;;;;5.60;3.17;;;;;;;;;;5074151;28;20181;-64
2022/05/18 07:54:09;;;;;;;3.30;2.63;;;;;;;;;;5074194;28;20582;-65
2022/05/18 07:56:35;;;;;;;3.90;2.73;;;;;;;;;;5074104;28;20203;-64
2022/05/18 07:59:02;;;;;;;2.60;2.37;;;;;;;;;;5073987;28;20209;-64
2022/05/18 08:01:28;;;;;;;3.17;2.60;;;;;;;;;;5056038;28;20224;-64
2022/05/18 08:03:54;;;;;;;4.27;2.47;;;;;;;;;;5055870;28;20185;-65
2022/05/18 08:06:20;;;;;;;4.23;2.70;;;;;;;;;;5056130;28;20180;-64
2022/05/18 08:08:46;;;;;;;5.20;2.47;;;;;;;;;;5074017;28;20545;-64
2022/05/18 08:16:42;;;;;;;3.50;2.73;;;;;;;;;;5074271;28;20219;-64
2022/05/18 08:19:12;;;;;;;4.53;2.40;;;;;;;;;;5073408;28;20638;-64
2022/05/18 08:21:38;;;;;;;3.77;2.53;;;;;;;;;;5074278;28;20173;-63
2022/05/18 08:24:05;;;;;;;3.33;2.73;;;;;;;;;;5074429;28;20529;-64
2022/05/18 08:26:31;;;;;;;3.00;2.73;;;;;;;;;;5055710;28;20554;-64
2022/05/18 08:28:58;;;;;;;6.27;3.40;;;;;;;;;;5055452;28;20205;-64
2022/05/18 08:31:24;;;;;;;4.33;2.80;;;;;;;;;;5073837;28;20235;-64
2022/05/18 08:33:50;;;;;;;3.50;3.10;;;;;;;;;;5055679;28;20190;-65
2022/05/18 08:36:18;;;;;;;4.07;2.83;;;;;;;;;;5073444;28;20214;-65
2022/05/18 08:38:44;;;;;;;3.33;2.97;;;;;;;;;;5073209;28;20201;-64
2022/05/18 08:41:11;;;;;;;4.40;3.00;;;;;;;;;;5055490;28;20177;-65
2022/05/18 08:43:39;;;;;;;5.80;3.23;;;;;;;;;;5055434;28;20206;-65
2022/05/18 08:46:10;;;;;;;3.33;2.73;;;;;;;;;;5073565;28;20177;-64
2022/05/18 08:48:54;;;;;;;3.37;2.83;;;;;;;;;;5073966;28;20730;-64
2022/05/18 08:51:20;;;;;;;4.27;2.60;;;;;;;;;;5073694;28;20235;-64
2022/05/18 08:53:50;;;;;;;2.90;2.70;;;;;;;;;;5073413;28;20548;-65
2022/05/18 08:56:49;;;;;;;4.33;3.27;;;;;;;;;;5073446;28;20178;-64
2022/05/18 08:59:22;;;;;;;6.23;2.90;;;;;;;;;;5029449;28;20304;-64
2022/05/18 09:01:51;;;;;;;3.87;3.20;;;;;;;;;;5073444;28;20197;-64
2022/05/18 09:04:17;;;;;;;4.07;2.97;;;;;;;;;;5055214;28;20231;-65
2022/05/18 09:06:48;;;;;;;4.00;2.93;;;;;;;;;;5073184;28;20552;-64
2022/05/18 09:12:05;;;;;;;6.73;2.87;;;;;;;;;;5073745;28;20259;-64
2022/05/18 09:14:39;;;;;;;3.30;2.47;;;;;;;;;;5073044;28;20201;-64
2022/05/18 09:17:25;;;;;;;5.23;3.40;;;;;;;;;;5073188;28;20205;-63
2022/05/18 09:19:51;;;;;;;3.37;2.90;;;;;;;;;;5059261;28;20221;-63
2022/05/18 09:22:36;;;;;;;3.83;3.20;;;;;;;;;;5073103;28;20174;-64
2022/05/18 09:25:04;;;;;;;4.27;2.87;;;;;;;;;;5072914;28;20204;-63
2022/05/18 09:27:50;;;;;;;6.00;3.10;;;;;;;;;;5054849;28;20201;-63
2022/05/18 09:30:19;;;;;;;3.70;2.80;;;;;;;;;;5054862;28;20185;-63
2022/05/18 09:32:59;;;;;;;4.33;2.90;;;;;;;;;;5073361;28;20177;-63
2022/05/18 09:35:24;;;;;;;3.83;3.03;;;;;;;;;;5073077;28;20260;-64
2022/05/18 09:37:53;;;;;;;3.47;2.57;;;;;;;;;;5055534;28;20309;-64
2022/05/18 09:40:22;;;;;;;2.87;2.43;;;;;;;;;;5073723;28;20216;-63
2022/05/18 09:42:49;;;;;;;2.50;2.30;;;;;;;;;;5073304;28;20638;-63
2022/05/18 09:45:17;;;;;;;2.97;2.57;;;;;;;;;;5055140;28;20269;-63
2022/05/18 09:47:54;;;;;;;2.77;2.37;;;;;;;;;;5072789;28;20251;-65
2022/05/18 09:50:21;;;;;;;3.80;2.53;;;;;;;;;;5054990;28;20173;-65
2022/05/18 09:52:48;;;;;;;3.17;2.80;;;;;;;;;;5055042;28;20178;-64
2022/05/18 09:55:16;;;;;;;4.10;2.50;;;;;;;;;;5073107;28;20210;-64
2022/05/18 09:57:52;;;;;;;4.43;2.53;;;;;;;;;;5073120;28;20573;-65
2022/05/18 10:00:20;;;;;;;2.40;2.20;;;;;;;;;;5072918;28;20201;-65
2022/05/18 10:07:27;;;;;;;2.60;2.33;;;;;;;;;;5073200;28;20168;-65
2022/05/18 10:08:43;;;;;;;3.17;2.87;;;;;;;;;;5073325;28;20251;-64
2022/05/18 10:11:14;;;;;;;2.40;2.20;;;;;;;;;;5076838;28;20166;-65
2022/05/18 10:13:53;;;;;;;4.17;2.97;;;;;;;;;;5076422;28;20189;-64
2022/05/18 10:16:22;;;;;;;2.60;2.40;;;;;;;;;;5058396;28;20161;-65
2022/05/18 10:18:53;;;;;;;4.20;2.40;;;;;;;;;;5076286;28;20235;-65
2022/05/18 10:21:26;;;;;;;4.67;2.70;;;;;;;;;;5058335;28;20181;-64
2022/05/18 10:23:52;;;;;;;3.60;2.90;;;;;;;;;;5075993;28;20158;-65
2022/05/18 10:26:24;;;;;;;3.37;2.87;;;;;;;;;;5076392;28;20178;-64
2022/05/18 10:28:55;;;;;;;2.97;2.20;;;;;;;;;;5058106;28;20210;-64
2022/05/18 10:31:35;;;;;;;2.90;2.70;;;;;;;;;;5075850;28;20177;-64
2022/05/18 10:34:09;;;;;;;2.80;2.60;;;;;;;;;;5058187;28;20166;-64
2022/05/18 10:36:41;;;;;;;3.10;2.80;;;;;;;;;;5075783;28;20574;-64
2022/05/18 10:39:08;;;;;;;3.00;2.70;;;;;;;;;;5057661;28;20698;-65
2022/05/18 10:41:39;;;;;;;3.97;3.07;;;;;;;;;;5057652;28;20185;-64
2022/05/18 10:44:06;;;;;;;3.40;2.80;;;;;;;;;;5057882;28;20747;-64
2022/05/18 10:46:36;;;;;;;3.23;2.90;;;;;;;;;;5076144;28;20651;-64
2022/05/18 10:49:10;;;;;;;5.43;2.60;;;;;;;;;;5076069;28;20707;-64
2022/05/18 10:51:39;;;;;;;4.40;2.90;;;;;;;;;;5057889;28;20260;-64
2022/05/18 10:54:25;;;;;;;2.97;2.63;;;;;;;;;;5075768;28;20173;-64
2022/05/18 10:56:52;;;;;;;3.43;2.93;;;;;;;;;;5057795;28;20177;-64
2022/05/18 10:59:20;;;;;;;3.23;2.90;;;;;;;;;;5075357;28;20280;-65
2022/05/18 11:01:55;;;;;;;3.40;2.80;;;;;;;;;;5075311;28;20173;-64
2022/05/18 11:04:27;;;;;;;2.97;2.60;;;;;;;;;;5075205;28;20174;-64
2022/05/18 11:06:54;;;;;;;5.50;2.70;;;;;;;;;;5075341;28;20633;-64
2022/05/18 11:09:31;;;;;;;7.43;2.83;;;;;;;;;;5056888;28;20212;-64
2022/05/18 11:12:07;;;;;;;2.70;2.50;;;;;;;;;;5074963;28;20178;-64
2022/05/18 11:14:59;;;;;;;3.13;2.70;;;;;;;;;;5075024;28;20177;-64
2022/05/18 11:17:44;;;;;;;3.53;2.73;;;;;;;;;;5053274;28;20221;-65
2022/05/18 11:20:16;;;;;;;3.58;3.05;;;;;;;;;;5074705;28;20213;-64
2022/05/18 11:22:48;;;;;;;6.47;3.30;;;;;;;;;;5074838;28;20630;-64
2022/05/18 11:25:20;;;;;;;4.28;3.42;;;;;;;;;;5075185;28;20201;-63
2022/05/18 11:27:52;;;;;;;4.93;3.17;;;;;;;;;;5057089;28;20197;-64
2022/05/18 11:30:38;;;;;;;4.30;3.10;;;;;;;;;;5074989;28;20231;-64
2022/05/18 11:33:08;;;;;;;3.30;2.78;;;;;;;;;;5074663;28;20231;-64
2022/05/18 11:35:44;;;;;;;3.20;2.50;;;;;;;;;;5075023;28;20158;-64
2022/05/18 11:38:28;;;;;;;2.80;2.60;;;;;;;;;;5074247;28;20204;-64
2022/05/18 11:40:54;;;;;;;5.13;2.83;;;;;;;;;;5074409;28;20235;-64
2022/05/18 11:43:28;;;;;;;3.10;2.80;;;;;;;;;;5074534;28;20177;-64
2022/05/18 11:46:06;;;;;;;2.92;2.67;;;;;;;;;;5074498;28;20173;-64
2022/05/18 11:48:43;;;;;;;2.55;2.30;;;;;;;;;;5074235;28;20194;-64
2022/05/18 11:51:18;;;;;;;4.88;2.60;;;;;;;;;;5074733;28;20173;-64
2022/05/18 11:53:50;;;;;;;6.85;2.78;;;;;;;;;;5074414;28;20177;-64
2022/05/18 11:56:19;;;;;;;2.70;2.50;;;;;;;;;;5074154;28;20174;-64
2022/05/18 11:59:08;;;;;;;2.60;2.40;;;;;;;;;;5056048;28;20588;-64
2022/05/18 12:01:37;;;;;;;3.83;2.90;;;;;;;;;;5073057;28;20375;-64
2022/05/18 12:04:22;;;;;;;3.17;2.65;;;;;;;;;;5055956;28;20178;-64
2022/05/18 12:06:48;;;;;;;2.50;2.30;;;;;;;;;;5056149;28;20178;-64
2022/05/18 12:09:20;;;;;;;2.58;2.38;;;;;;;;;;5055935;28;20201;-66
2022/05/18 12:12:02;;;;;;;5.50;2.60;;;;;;;;;;5073987;28;20174;-65
2022/05/18 12:14:41;;;;;;;2.75;2.33;;;;;;;;;;5055925;28;20166;-65
2022/05/18 12:17:09;;;;;;;2.53;2.20;;;;;;;;;;5056664;28;20261;-65
2022/05/18 12:19:44;;;;;;;2.40;2.20;;;;;;;;;;5073857;28;20681;-65
2022/05/18 12:22:20;;;;;;;3.38;2.20;;;;;;;;;;5073995;28;20231;-65
2022/05/18 12:24:47;;;;;;;2.63;2.42;;;;;;;;;;5073547;28;20180;-65
2022/05/18 12:27:15;;;;;;;2.95;2.45;;;;;;;;;;5072554;28;20380;-65
2022/05/18 12:29:42;;;;;;;2.40;2.20;;;;;;;;;;5055575;28;20186;-65
2022/05/18 12:32:09;;;;;;;2.63;2.28;;;;;;;;;;5055068;28;20611;-65
2022/05/18 12:34:34;;;;;;;2.72;2.22;;;;;;;;;;5073488;28;20605;-65
2022/05/18 12:37:09;;;;;;;3.00;2.42;;;;;;;;;;5073623;28;20170;-65
2022/05/18 12:39:35;;;;;;;2.60;2.40;;;;;;;;;;5055251;28;20703;-65
2022/05/18 12:42:03;;;;;;;2.72;2.30;;;;;;;;;;5072344;28;20411;-65
2022/05/18 12:44:41;;;;;;;3.95;2.90;;;;;;;;;;5055193;28;20181;-66
2022/05/18 12:47:27;;;;;;;4.88;2.95;;;;;;;;;;5073312;28;20174;-65
2022/05/18 12:50:13;;;;;;;3.13;2.65;;;;;;;;;;5055257;28;20177;-66
2022/05/18 12:52:59;;;;;;;3.05;2.72;;;;;;;;;;5073342;28;20174;-63
2022/05/18 12:55:25;;;;;;;3.20;2.83;;;;;;;;;;5073752;28;20164;-65
2022/05/18 12:57:56;;;;;;;4.10;2.70;;;;;;;;;;5073554;28;20629;-64
2022/05/18 13:00:25;;;;;;;3.03;2.78;;;;;;;;;;5072036;28;20486;-65
2022/05/18 13:03:02;;;;;;;3.95;2.95;;;;;;;;;;5073272;28;20170;-64
2022/05/18 13:05:36;;;;;;;4.88;2.90;;;;;;;;;;5072028;28;20402;-66
2022/05/18 13:08:11;;;;;;;3.40;3.10;;;;;;;;;;5073298;28;20196;-64
2022/05/18 13:10:38;;;;;;;4.80;3.00;;;;;;;;;;5072029;28;20368;-64
2022/05/18 13:13:23;;;;;;;3.05;2.78;;;;;;;;;;5059165;22;20234;-67
2022/05/18 13:15:52;;;;;;;4.45;2.80;;;;;;;;;;5053512;28;20175;-66
2022/05/18 13:18:19;;;;;;;3.00;2.80;;;;;;;;;;5035688;28;20174;-66
2022/05/18 13:20:55;;;;;;;3.97;2.85;;;;;;;;;;5053589;28;20214;-66
2022/05/18 13:23:21;;;;;;;5.05;2.90;;;;;;;;;;5035338;28;20221;-66
2022/05/18 13:25:49;;;;;;;3.67;3.30;;;;;;;;;;5053355;28;20224;-67
2022/05/18 13:28:15;;;;;;;4.88;3.45;;;;;;;;;;5053875;28;20210;-68
2022/05/18 13:30:43;;;;;;;3.88;3.10;;;;;;;;;;5053273;28;20186;-67
2022/05/18 13:33:11;;;;;;;3.67;3.28;;;;;;;;;;5053233;28;20566;-67
2022/05/18 13:35:37;;;;;;;3.50;2.80;;;;;;;;;;5053450;28;20296;-67
2022/05/18 13:38:11;;;;;;;3.22;2.92;;;;;;;;;;5053318;28;20175;-68
2022/05/18 13:40:38;;;;;;;4.22;3.08;;;;;;;;;;5053268;28;20198;-67
2022/05/18 13:43:07;;;;;;;2.60;2.42;;;;;;;;;;5035166;28;20564;-67
2022/05/18 13:45:34;;;;;;;3.25;2.85;;;;;;;;;;5057037;28;20174;-68
2022/05/18 13:48:00;;;;;;;4.00;3.58;;;;;;;;;;5057039;28;20232;-68
2022/05/18 13:50:29;;;;;;;5.68;3.00;;;;;;;;;;5038976;28;20179;-67
2022/05/18 13:52:57;;;;;;;3.03;2.70;;;;;;;;;;5056744;28;20198;-67
2022/05/18 13:55:24;;;;;;;3.95;3.20;;;;;;;;;;5057113;28;20175;-68
2022/05/18 13:57:52;;;;;;;3.63;3.15;;;;;;;;;;5039026;28;20178;-67
2022/05/18 14:00:37;;;;;;;3.58;3.28;;;;;;;;;;5039124;28;20198;-67
2022/05/18 14:03:03;;;;;;;3.53;3.22;;;;;;;;;;5056606;28;20240;-67
2022/05/18 14:05:31;;;;;;;4.05;3.00;;;;;;;;;;5038674;28;20174;-67
2022/05/18 14:07:57;;;;;;;2.85;2.65;;;;;;;;;;5056786;28;20178;-67
2022/05/18 14:10:25;;;;;;;3.33;3.03;;;;;;;;;;5039037;28;20186;-65
2022/05/18 14:12:55;;;;;;;5.80;3.25;;;;;;;;;;5057052;28;20620;-68
2022/05/18 14:15:20;;;;;;;3.67;3.08;;;;;;;;;;5039218;28;20550;-67
2022/05/18 14:17:47;;;;;;;3.15;2.88;;;;;;;;;;5058077;28;20177;-67
2022/05/18 14:20:20;;;;;;;4.25;3.05;;;;;;;;;;5056748;28;20284;-66
2022/05/18 14:22:50;;;;;;;3.10;2.80;;;;;;;;;;5056519;28;20190;-68
2022/05/18 14:25:16;;;;;;;3.20;2.90;;;;;;;;;;5056379;28;20202;-67
2022/05/18 14:27:45;;;;;;;3.10;2.90;;;;;;;;;;5056743;28;20166;-67
2022/05/18 14:30:16;;;;;;;3.22;2.92;;;;;;;;;;5056305;28;20171;-67
2022/05/18 14:32:47;;;;;;;2.83;2.60;;;;;;;;;;5056338;28;20194;-67
2022/05/18 14:35:16;;;;;;;3.60;2.72;;;;;;;;;;5038287;28;20205;-68
2022/05/18 14:38:02;;;;;;;3.38;3.08;;;;;;;;;;5056100;28;20183;-68
2022/05/18 14:40:32;;;;;;;3.47;2.95;;;;;;;;;;5056002;28;20700;-69
2022/05/18 14:42:58;;;;;;;2.90;2.60;;;;;;;;;;5037784;28;20309;-68
2022/05/18 14:45:25;;;;;;;6.22;2.78;;;;;;;;;;5055868;28;20171;-67
2022/05/18 14:47:59;;;;;;;3.25;3.03;;;;;;;;;;5055914;28;20189;-68
2022/05/18 14:50:39;;;;;;;3.13;2.85;;;;;;;;;;5038036;28;20173;-68
2022/05/18 14:53:08;;;;;;;2.55;2.35;;;;;;;;;;5055819;28;20324;-67
2022/05/18 14:55:53;;;;;;;3.03;2.72;;;;;;;;;;5037380;28;20324;-68
2022/05/18 14:58:28;;;;;;;2.70;2.50;;;;;;;;;;5055934;28;20545;-68
2022/05/18 15:00:55;;;;;;;3.00;2.80;;;;;;;;;;5037739;28;20200;-67
2022/05/18 15:03:24;;;;;;;3.17;2.75;;;;;;;;;;5055866;28;20217;-68
2022/05/18 15:05:50;;;;;;;4.25;3.25;;;;;;;;;;5055502;28;20163;-67
2022/05/18 15:08:18;;;;;;;2.83;2.63;;;;;;;;;;5055506;28;20552;-68
2022/05/18 15:10:55;;;;;;;3.10;2.80;;;;;;;;;;5037609;28;20182;-68
2022/05/18 15:13:27;;;;;;;2.70;2.50;;;;;;;;;;5055209;28;20256;-68